Center Point, IA

3:11 PM CST on February 28, 2015 (GMT -0600)
KIACENTR2 | Change Station
CLOSE
Current Station
Personal Weather Station
Location: Central City, IA
Elevation: 930 ft
Nearby Weather Stations

Elev 930 ft 42.20 °N, 91.65 °W | Updated 4 minutes ago

Partly Cloudy
Partly Cloudy
13.2 °F
Feels Like -1 °F
N
13.0
Wind Variable Wind from ESE
Gusts 15.4 mph

Today
High -- | Low -- °F
--% Chance of Precip.
Yesterday
High -- | Low -- °F
Precip. -- in
6:44 AM 5:55 PM
Waxing Gibbous, 80% visible
Pressure 30.49 in
Visibility 10.0 miles
Clouds Clear
Windchill -1 °F
Dew Point 4 °F
Humidity 66%
Rainfall -999.00 in
Snow Depth Not available.
UV 1.0 out of 12
Pollen .50 out of 12
Air Quality Not available.
Flu Activity Not available.
METAR KVTI 282055Z AUTO 13008KT 10SM CLR M08/M16 A3049 RMK AO2 T10791164

More Conditions Fewer Conditions

Pressure 30.49 in
Visibility 10.0 miles
Clouds Clear
Windchill -1 °F
Dew Point 4 °F
Humidity 66%
Rainfall -999.00 in
Snow Depth Not available.
UV 1.0 out of 12
Pollen .50 out of 12
Air Quality Not available.
Flu Activity Not available.
METAR KVTI 282055Z AUTO 13008KT 10SM CLR M08/M16 A3049 RMK AO2 T10791164

More Conditions Fewer Conditions

10-Day Weather Forecast

Almanac

Astronomy

Feb. 28, 2015 Rise Set
Actual Time
Civil Twilight
Nautical Twilight
Astronomical Twilight
Moon
Length of Visible Light
Length of Day
Tomorrow will be .
, % of the Moon is Illuminated

Today's Extremes

State Highs State Lows

Community

WunderPhotos

Upload Photos

1,801,150 photos uploaded!

WunderBlogs® & News

Nearby

Air Quality

  Air Quality AQ Index Pollutant
Not available.

Snow Depth

Station Depth Elevation

Earthquake Activity

City Distance Mag. Time & Date
Minimum magnitude displayed is 2.5.

Coastal Water Temperatures

Place Temperature

Nearby Weather Stations